sensor_id;sensor_type;location;lat;lon;timestamp;pressure;altitude;pressure_sealevel;temperature;humidity
80712;BME280;70078;51.596;5.678;2024-02-21T00:00:20;102138.00;;;8.88;87.31
80712;BME280;70078;51.596;5.678;2024-02-21T00:02:46;102164.72;;;8.98;87.62
80712;BME280;70078;51.596;5.678;2024-02-21T00:05:11;102159.41;;;8.98;87.89
80712;BME280;70078;51.596;5.678;2024-02-21T00:07:37;102156.88;;;8.97;87.75
80712;BME280;70078;51.596;5.678;2024-02-21T00:10:02;102149.84;;;8.96;87.83
80712;BME280;70078;51.596;5.678;2024-02-21T00:12:28;102148.53;;;9.01;87.46
80712;BME280;70078;51.596;5.678;2024-02-21T00:14:53;102139.91;;;8.98;87.36
80712;BME280;70078;51.596;5.678;2024-02-21T00:17:18;102139.47;;;8.93;87.43
80712;BME280;70078;51.596;5.678;2024-02-21T00:19:44;102137.50;;;8.95;87.15
80712;BME280;70078;51.596;5.678;2024-02-21T00:22:09;102158.44;;;9.10;87.17
80712;BME280;70078;51.596;5.678;2024-02-21T00:24:34;102159.19;;;9.01;87.29
80712;BME280;70078;51.596;5.678;2024-02-21T00:27:00;102143.31;;;8.88;87.69
80712;BME280;70078;51.596;5.678;2024-02-21T00:29:25;102154.69;;;9.02;87.18
80712;BME280;70078;51.596;5.678;2024-02-21T00:31:50;102151.63;;;9.06;87.19
80712;BME280;70078;51.596;5.678;2024-02-21T00:34:16;102138.59;;;9.03;86.69
80712;BME280;70078;51.596;5.678;2024-02-21T00:36:41;102115.13;;;8.86;87.00
80712;BME280;70078;51.596;5.678;2024-02-21T00:39:06;102127.78;;;9.05;87.00
80712;BME280;70078;51.596;5.678;2024-02-21T00:41:32;102119.44;;;9.09;87.10
80712;BME280;70078;51.596;5.678;2024-02-21T00:43:58;102112.78;;;9.04;87.12
80712;BME280;70078;51.596;5.678;2024-02-21T00:46:23;102095.41;;;8.88;87.22
80712;BME280;70078;51.596;5.678;2024-02-21T00:48:48;102114.03;;;9.00;87.55
80712;BME280;70078;51.596;5.678;2024-02-21T00:51:15;102082.00;;;8.79;87.41
80712;BME280;70078;51.596;5.678;2024-02-21T00:53:41;102069.03;;;8.74;87.68
80712;BME280;70078;51.596;5.678;2024-02-21T00:56:07;102057.31;;;8.66;87.98
80712;BME280;70078;51.596;5.678;2024-02-21T00:58:32;102060.13;;;8.64;87.82
80712;BME280;70078;51.596;5.678;2024-02-21T01:00:57;102070.28;;;8.70;87.56
80712;BME280;70078;51.596;5.678;2024-02-21T01:03:23;102103.19;;;8.69;87.99
80712;BME280;70078;51.596;5.678;2024-02-21T01:05:48;102062.31;;;8.48;88.24
80712;BME280;70078;51.596;5.678;2024-02-21T01:08:13;102101.03;;;8.63;88.34
80712;BME280;70078;51.596;5.678;2024-02-21T01:10:38;102082.25;;;8.53;88.29
80712;BME280;70078;51.596;5.678;2024-02-21T01:13:04;102093.38;;;8.58;88.45
80712;BME280;70078;51.596;5.678;2024-02-21T01:15:29;102082.63;;;8.49;89.11
80712;BME280;70078;51.596;5.678;2024-02-21T01:17:54;102055.31;;;8.47;88.66
80712;BME280;70078;51.596;5.678;2024-02-21T01:20:20;102093.03;;;8.63;88.54
80712;BME280;70078;51.596;5.678;2024-02-21T01:22:46;102082.16;;;8.55;88.67
80712;BME280;70078;51.596;5.678;2024-02-21T01:25:11;102075.84;;;8.45;89.17
80712;BME280;70078;51.596;5.678;2024-02-21T01:27:36;102077.06;;;8.52;89.08
80712;BME280;70078;51.596;5.678;2024-02-21T01:30:02;102077.69;;;8.55;88.57
80712;BME280;70078;51.596;5.678;2024-02-21T01:32:27;102060.63;;;8.47;88.52
80712;BME280;70078;51.596;5.678;2024-02-21T01:34:52;102065.22;;;8.56;88.41
80712;BME280;70078;51.596;5.678;2024-02-21T01:37:18;102049.50;;;8.42;88.37
80712;BME280;70078;51.596;5.678;2024-02-21T01:39:43;102043.69;;;8.48;88.62
80712;BME280;70078;51.596;5.678;2024-02-21T01:42:08;102038.97;;;8.51;88.49
80712;BME280;70078;51.596;5.678;2024-02-21T01:44:34;102050.94;;;8.57;88.33
80712;BME280;70078;51.596;5.678;2024-02-21T01:46:59;102049.00;;;8.48;87.50
80712;BME280;70078;51.596;5.678;2024-02-21T01:49:25;102043.78;;;8.57;88.19
80712;BME280;70078;51.596;5.678;2024-02-21T01:51:50;102010.78;;;8.38;87.79
80712;BME280;70078;51.596;5.678;2024-02-21T01:54:17;102026.75;;;8.49;87.80
80712;BME280;70078;51.596;5.678;2024-02-21T01:56:44;102028.44;;;8.50;87.81
80712;BME280;70078;51.596;5.678;2024-02-21T01:59:12;102011.75;;;8.48;87.53
80712;BME280;70078;51.596;5.678;2024-02-21T02:01:38;102020.94;;;8.55;87.64
80712;BME280;70078;51.596;5.678;2024-02-21T02:04:04;102035.53;;;8.60;87.61
80712;BME280;70078;51.596;5.678;2024-02-21T02:06:30;102009.19;;;8.46;87.36
80712;BME280;70078;51.596;5.678;2024-02-21T02:08:56;102034.47;;;8.63;87.80
80712;BME280;70078;51.596;5.678;2024-02-21T02:11:22;102004.00;;;8.56;87.00
80712;BME280;70078;51.596;5.678;2024-02-21T02:13:47;102018.72;;;8.60;87.31
80712;BME280;70078;51.596;5.678;2024-02-21T02:16:12;102026.13;;;8.56;87.57
80712;BME280;70078;51.596;5.678;2024-02-21T02:18:37;102028.88;;;8.66;87.50
80712;BME280;70078;51.596;5.678;2024-02-21T02:21:10;102018.09;;;8.68;87.20
80712;BME280;70078;51.596;5.678;2024-02-21T02:23:39;102010.75;;;8.60;87.42
80712;BME280;70078;51.596;5.678;2024-02-21T02:26:05;102017.25;;;8.67;87.61
80712;BME280;70078;51.596;5.678;2024-02-21T02:28:32;101992.22;;;8.70;86.83
80712;BME280;70078;51.596;5.678;2024-02-21T02:30:57;101978.09;;;8.58;86.54
80712;BME280;70078;51.596;5.678;2024-02-21T02:33:23;102005.63;;;8.79;86.62
80712;BME280;70078;51.596;5.678;2024-02-21T02:35:48;102001.06;;;8.70;86.63
80712;BME280;70078;51.596;5.678;2024-02-21T02:38:14;101997.66;;;8.68;86.78
80712;BME280;70078;51.596;5.678;2024-02-21T02:40:40;101969.28;;;8.57;86.93
80712;BME280;70078;51.596;5.678;2024-02-21T02:43:06;101968.91;;;8.51;86.80
80712;BME280;70078;51.596;5.678;2024-02-21T02:45:32;101969.34;;;8.67;86.46
80712;BME280;70078;51.596;5.678;2024-02-21T02:47:57;101976.84;;;8.73;86.78
80712;BME280;70078;51.596;5.678;2024-02-21T02:50:26;101955.59;;;8.62;85.87
80712;BME280;70078;51.596;5.678;2024-02-21T02:52:52;101987.97;;;8.67;86.33
80712;BME280;70078;51.596;5.678;2024-02-21T02:55:18;101984.81;;;8.73;86.30
80712;BME280;70078;51.596;5.678;2024-02-21T02:57:43;101964.38;;;8.74;86.13
80712;BME280;70078;51.596;5.678;2024-02-21T03:00:13;101940.88;;;8.47;86.13
80712;BME280;70078;51.596;5.678;2024-02-21T03:02:41;101957.84;;;8.67;86.25
80712;BME280;70078;51.596;5.678;2024-02-21T03:05:13;101947.72;;;8.60;86.02
80712;BME280;70078;51.596;5.678;2024-02-21T03:07:41;101964.03;;;8.67;86.29
80712;BME280;70078;51.596;5.678;2024-02-21T03:10:07;101969.13;;;8.70;86.25
80712;BME280;70078;51.596;5.678;2024-02-21T03:12:33;101937.47;;;8.45;86.43
80712;BME280;70078;51.596;5.678;2024-02-21T03:14:58;101962.09;;;8.69;86.45
80712;BME280;70078;51.596;5.678;2024-02-21T03:17:24;101932.00;;;8.57;85.88
80712;BME280;70078;51.596;5.678;2024-02-21T03:19:52;101943.00;;;8.64;85.63
80712;BME280;70078;51.596;5.678;2024-02-21T03:22:17;101955.59;;;8.62;86.00
80712;BME280;70078;51.596;5.678;2024-02-21T03:24:42;101954.22;;;8.68;85.62
80712;BME280;70078;51.596;5.678;2024-02-21T03:27:08;101939.94;;;8.69;85.90
80712;BME280;70078;51.596;5.678;2024-02-21T03:29:33;101938.88;;;8.60;86.05
80712;BME280;70078;51.596;5.678;2024-02-21T03:31:59;101934.03;;;8.65;85.83
80712;BME280;70078;51.596;5.678;2024-02-21T03:34:24;101918.22;;;8.52;86.08
80712;BME280;70078;51.596;5.678;2024-02-21T03:36:49;101916.94;;;8.68;85.85
80712;BME280;70078;51.596;5.678;2024-02-21T03:39:15;101890.63;;;8.53;85.77
80712;BME280;70078;51.596;5.678;2024-02-21T03:41:40;101915.88;;;8.70;85.80
80712;BME280;70078;51.596;5.678;2024-02-21T03:44:05;101896.56;;;8.57;86.08
80712;BME280;70078;51.596;5.678;2024-02-21T03:46:30;101910.56;;;8.70;86.06
80712;BME280;70078;51.596;5.678;2024-02-21T03:48:57;101884.59;;;8.51;86.03
80712;BME280;70078;51.596;5.678;2024-02-21T03:51:22;101889.50;;;8.67;85.36
80712;BME280;70078;51.596;5.678;2024-02-21T03:53:47;101903.41;;;8.71;85.73
80712;BME280;70078;51.596;5.678;2024-02-21T03:56:12;101910.56;;;8.70;85.84
80712;BME280;70078;51.596;5.678;2024-02-21T03:58:38;101878.06;;;8.55;85.55
80712;BME280;70078;51.596;5.678;2024-02-21T04:01:03;101872.63;;;8.57;85.37
80712;BME280;70078;51.596;5.678;2024-02-21T04:03:29;101902.03;;;8.76;85.40
80712;BME280;70078;51.596;5.678;2024-02-21T04:05:54;101893.09;;;8.77;85.47
80712;BME280;70078;51.596;5.678;2024-02-21T04:08:20;101875.22;;;8.68;85.16
80712;BME280;70078;51.596;5.678;2024-02-21T04:10:45;101895.34;;;8.82;85.39
80712;BME280;70078;51.596;5.678;2024-02-21T04:13:10;101873.53;;;8.67;85.02
80712;BME280;70078;51.596;5.678;2024-02-21T04:15:36;101900.75;;;8.71;85.49
80712;BME280;70078;51.596;5.678;2024-02-21T04:18:01;101895.56;;;8.69;85.60
80712;BME280;70078;51.596;5.678;2024-02-21T04:20:28;101900.75;;;8.71;85.56
80712;BME280;70078;51.596;5.678;2024-02-21T04:22:53;101894.69;;;8.69;85.64
80712;BME280;70078;51.596;5.678;2024-02-21T04:25:19;101909.16;;;8.76;85.46
80712;BME280;70078;51.596;5.678;2024-02-21T04:27:44;101905.44;;;8.78;85.10
80712;BME280;70078;51.596;5.678;2024-02-21T04:30:10;101902.91;;;8.77;85.53
80712;BME280;70078;51.596;5.678;2024-02-21T04:32:35;101897.94;;;8.72;85.68
80712;BME280;70078;51.596;5.678;2024-02-21T04:35:01;101897.94;;;8.72;85.50
80712;BME280;70078;51.596;5.678;2024-02-21T04:37:26;101842.03;;;8.51;85.24
80712;BME280;70078;51.596;5.678;2024-02-21T04:39:51;101881.00;;;8.73;85.44
80712;BME280;70078;51.596;5.678;2024-02-21T04:42:16;101890.94;;;8.71;85.51
80712;BME280;70078;51.596;5.678;2024-02-21T04:44:42;101872.03;;;8.74;84.98
80712;BME280;70078;51.596;5.678;2024-02-21T04:47:07;101864.25;;;8.61;85.26
80712;BME280;70078;51.596;5.678;2024-02-21T04:49:33;101877.66;;;8.60;85.93
80712;BME280;70078;51.596;5.678;2024-02-21T04:51:59;101892.91;;;8.69;85.94
80712;BME280;70078;51.596;5.678;2024-02-21T04:54:24;101868.00;;;8.59;85.84
80712;BME280;70078;51.596;5.678;2024-02-21T04:56:50;101886.84;;;8.67;85.85
80712;BME280;70078;51.596;5.678;2024-02-21T04:59:15;101851.00;;;8.50;85.94
80712;BME280;70078;51.596;5.678;2024-02-21T05:01:41;101874.78;;;8.63;86.03
80712;BME280;70078;51.596;5.678;2024-02-21T05:04:06;101880.47;;;8.58;86.60
80712;BME280;70078;51.596;5.678;2024-02-21T05:06:31;101867.88;;;8.60;86.73
80712;BME280;70078;51.596;5.678;2024-02-21T05:08:56;101851.66;;;8.64;86.45
80712;BME280;70078;51.596;5.678;2024-02-21T05:11:23;101867.41;;;8.76;86.20
80712;BME280;70078;51.596;5.678;2024-02-21T05:13:48;101859.00;;;8.71;86.91
80712;BME280;70078;51.596;5.678;2024-02-21T05:16:13;101839.66;;;8.69;86.41
80712;BME280;70078;51.596;5.678;2024-02-21T05:18:39;101848.59;;;8.68;87.03
80712;BME280;70078;51.596;5.678;2024-02-21T05:21:05;101836.34;;;8.56;86.80
80712;BME280;70078;51.596;5.678;2024-02-21T05:23:30;101854.66;;;8.70;86.79
80712;BME280;70078;51.596;5.678;2024-02-21T05:25:55;101846.25;;;8.75;86.62
80712;BME280;70078;51.596;5.678;2024-02-21T05:28:20;101841.56;;;8.67;86.93
80712;BME280;70078;51.596;5.678;2024-02-21T05:30:46;101844.97;;;8.69;86.69
80712;BME280;70078;51.596;5.678;2024-02-21T05:33:11;101835.56;;;8.65;87.15
80712;BME280;70078;51.596;5.678;2024-02-21T05:35:37;101821.06;;;8.58;87.09
80712;BME280;70078;51.596;5.678;2024-02-21T05:38:03;101822.03;;;8.57;87.63
80712;BME280;70078;51.596;5.678;2024-02-21T05:40:36;101801.22;;;8.62;86.37
80712;BME280;70078;51.596;5.678;2024-02-21T05:43:02;101800.94;;;8.65;86.62
80712;BME280;70078;51.596;5.678;2024-02-21T05:45:27;101817.81;;;8.75;86.44
80712;BME280;70078;51.596;5.678;2024-02-21T05:47:52;101788.22;;;8.48;87.25
80712;BME280;70078;51.596;5.678;2024-02-21T05:50:17;101813.47;;;8.74;86.72
80712;BME280;70078;51.596;5.678;2024-02-21T05:52:43;101807.72;;;8.69;86.37
80712;BME280;70078;51.596;5.678;2024-02-21T05:55:08;101793.41;;;8.49;86.74
80712;BME280;70078;51.596;5.678;2024-02-21T05:57:36;101795.28;;;8.58;86.84
80712;BME280;70078;51.596;5.678;2024-02-21T06:00:04;101787.72;;;8.54;86.48
80712;BME280;70078;51.596;5.678;2024-02-21T06:02:30;101792.44;;;8.50;87.25
80712;BME280;70078;51.596;5.678;2024-02-21T06:04:55;101777.97;;;8.43;86.99
80712;BME280;70078;51.596;5.678;2024-02-21T06:07:21;101800.38;;;8.61;86.78
80712;BME280;70078;51.596;5.678;2024-02-21T06:09:46;101782.91;;;8.48;86.91
80712;BME280;70078;51.596;5.678;2024-02-21T06:12:11;101793.75;;;8.56;86.90
80712;BME280;70078;51.596;5.678;2024-02-21T06:14:36;101786.47;;;8.58;86.64
80712;BME280;70078;51.596;5.678;2024-02-21T06:17:02;101781.28;;;8.56;86.74
80712;BME280;70078;51.596;5.678;2024-02-21T06:19:27;101773.53;;;8.53;86.62
80712;BME280;70078;51.596;5.678;2024-02-21T06:21:53;101739.78;;;8.33;86.51
80712;BME280;70078;51.596;5.678;2024-02-21T06:24:18;101753.75;;;8.46;86.48
80712;BME280;70078;51.596;5.678;2024-02-21T06:26:43;101773.44;;;8.55;86.54
80712;BME280;70078;51.596;5.678;2024-02-21T06:29:09;101748.38;;;8.37;87.22
80712;BME280;70078;51.596;5.678;2024-02-21T06:31:35;101756.59;;;8.33;87.14
80712;BME280;70078;51.596;5.678;2024-02-21T06:34:00;101771.09;;;8.61;86.61
80712;BME280;70078;51.596;5.678;2024-02-21T06:36:25;101738.94;;;8.32;87.14
80712;BME280;70078;51.596;5.678;2024-02-21T06:38:51;101780.16;;;8.59;86.97
80712;BME280;70078;51.596;5.678;2024-02-21T06:41:19;101772.31;;;8.57;87.14
80712;BME280;70078;51.596;5.678;2024-02-21T06:43:45;101774.00;;;8.58;87.19
80712;BME280;70078;51.596;5.678;2024-02-21T06:46:11;101757.66;;;8.42;87.52
80712;BME280;70078;51.596;5.678;2024-02-21T06:48:37;101757.31;;;8.36;87.02
80712;BME280;70078;51.596;5.678;2024-02-21T06:51:03;101769.59;;;8.48;86.94
80712;BME280;70078;51.596;5.678;2024-02-21T06:53:28;101781.81;;;8.50;87.52
80712;BME280;70078;51.596;5.678;2024-02-21T06:55:54;101782.63;;;8.51;87.20
80712;BME280;70078;51.596;5.678;2024-02-21T06:58:19;101776.53;;;8.60;86.75
80712;BME280;70078;51.596;5.678;2024-02-21T07:00:44;101755.13;;;8.41;86.64
80712;BME280;70078;51.596;5.678;2024-02-21T07:03:10;101754.41;;;8.39;87.02
80712;BME280;70078;51.596;5.678;2024-02-21T07:05:35;101785.75;;;8.56;87.17
80712;BME280;70078;51.596;5.678;2024-02-21T07:08:00;101748.13;;;8.40;86.96
80712;BME280;70078;51.596;5.678;2024-02-21T07:10:26;101774.41;;;8.54;86.92
80712;BME280;70078;51.596;5.678;2024-02-21T07:12:53;101742.44;;;8.33;87.02
80712;BME280;70078;51.596;5.678;2024-02-21T07:15:18;101779.75;;;8.54;87.46
80712;BME280;70078;51.596;5.678;2024-02-21T07:17:43;101757.97;;;8.49;86.82
80712;BME280;70078;51.596;5.678;2024-02-21T07:20:08;101768.13;;;8.55;87.36
80712;BME280;70078;51.596;5.678;2024-02-21T07:22:34;101763.78;;;8.54;87.10
80712;BME280;70078;51.596;5.678;2024-02-21T07:24:59;101750.13;;;8.47;87.01
80712;BME280;70078;51.596;5.678;2024-02-21T07:27:24;101747.06;;;8.52;86.84
80712;BME280;70078;51.596;5.678;2024-02-21T07:29:53;101745.38;;;8.51;86.91
80712;BME280;70078;51.596;5.678;2024-02-21T07:32:19;101728.53;;;8.41;87.43
80712;BME280;70078;51.596;5.678;2024-02-21T07:34:44;101746.09;;;8.53;87.13
80712;BME280;70078;51.596;5.678;2024-02-21T07:37:09;101728.84;;;8.47;86.76
80712;BME280;70078;51.596;5.678;2024-02-21T07:39:38;101738.19;;;8.63;86.40
80712;BME280;70078;51.596;5.678;2024-02-21T07:42:04;101721.81;;;8.46;86.84
80712;BME280;70078;51.596;5.678;2024-02-21T07:44:29;101741.22;;;8.58;87.19
80712;BME280;70078;51.596;5.678;2024-02-21T07:46:56;101728.53;;;8.61;86.68
80712;BME280;70078;51.596;5.678;2024-02-21T07:49:22;101688.53;;;8.52;86.26
80712;BME280;70078;51.596;5.678;2024-02-21T07:51:47;101697.25;;;8.54;86.87
80712;BME280;70078;51.596;5.678;2024-02-21T07:54:12;101700.66;;;8.66;86.46
80712;BME280;70078;51.596;5.678;2024-02-21T07:56:37;101708.66;;;8.75;86.34
80712;BME280;70078;51.596;5.678;2024-02-21T07:59:03;101686.78;;;8.62;86.56
80712;BME280;70078;51.596;5.678;2024-02-21T08:01:28;101706.84;;;8.76;86.83
80712;BME280;70078;51.596;5.678;2024-02-21T08:03:53;101690.16;;;8.74;86.81
80712;BME280;70078;51.596;5.678;2024-02-21T08:06:18;101693.44;;;8.77;86.79
80712;BME280;70078;51.596;5.678;2024-02-21T08:08:44;101677.19;;;8.80;86.69
80712;BME280;70078;51.596;5.678;2024-02-21T09:53:00;101559.34;;;8.98;89.52
80712;BME280;70078;51.596;5.678;2024-02-21T09:55:33;101388.44;;;7.96;89.40
80712;BME280;70078;51.596;5.678;2024-02-21T09:58:10;101534.28;;;9.00;89.87
80712;BME280;70078;51.596;5.678;2024-02-21T10:00:38;101536.50;;;9.05;89.32
80712;BME280;70078;51.596;5.678;2024-02-21T10:03:04;101523.75;;;8.99;89.16
80712;BME280;70078;51.596;5.678;2024-02-21T10:05:34;101504.72;;;8.94;89.07
80712;BME280;70078;51.596;5.678;2024-02-21T10:08:01;101527.53;;;9.06;89.28
80712;BME280;70078;51.596;5.678;2024-02-21T11:25:06;101339.47;;;10.15;79.34
80712;BME280;70078;51.596;5.678;2024-02-21T11:27:33;101339.91;;;10.10;79.59
80712;BME280;70078;51.596;5.678;2024-02-21T11:29:59;101332.91;;;10.09;79.69
80712;BME280;70078;51.596;5.678;2024-02-21T11:32:25;101331.31;;;10.16;79.42
80712;BME280;70078;51.596;5.678;2024-02-21T11:35:02;101285.25;;;9.96;79.13
80712;BME280;70078;51.596;5.678;2024-02-21T11:37:29;101328.81;;;10.15;80.23
80712;BME280;70078;51.596;5.678;2024-02-21T11:39:56;101273.31;;;10.00;79.21
80712;BME280;70078;51.596;5.678;2024-02-21T11:42:21;101306.16;;;10.19;79.53
80712;BME280;70078;51.596;5.678;2024-02-21T11:45:06;101280.25;;;10.11;79.83
80712;BME280;70078;51.596;5.678;2024-02-21T11:47:34;101274.28;;;10.17;79.44
80712;BME280;70078;51.596;5.678;2024-02-21T11:49:59;101263.78;;;10.16;79.53
80712;BME280;70078;51.596;5.678;2024-02-21T11:52:25;101274.09;;;10.46;79.53
80712;BME280;70078;51.596;5.678;2024-02-21T11:54:53;101260.41;;;10.49;78.91
80712;BME280;70078;51.596;5.678;2024-02-21T11:57:20;101258.66;;;10.58;78.23
80712;BME280;70078;51.596;5.678;2024-02-21T11:59:45;101262.91;;;10.69;77.13
80712;BME280;70078;51.596;5.678;2024-02-21T12:02:12;101241.44;;;10.52;77.50
80712;BME280;70078;51.596;5.678;2024-02-21T12:04:37;101259.78;;;10.73;76.30
80712;BME280;70078;51.596;5.678;2024-02-21T12:07:05;101254.34;;;10.65;76.42
80712;BME280;70078;51.596;5.678;2024-02-21T12:09:30;101195.38;;;10.50;76.34
80712;BME280;70078;51.596;5.678;2024-02-21T12:12:02;101202.16;;;10.71;76.56
80712;BME280;70078;51.596;5.678;2024-02-21T12:14:32;101190.84;;;10.77;76.90
80712;BME280;70078;51.596;5.678;2024-02-21T12:16:59;101172.47;;;10.74;77.37
80712;BME280;70078;51.596;5.678;2024-02-21T12:19:32;101157.03;;;10.94;76.92
80712;BME280;70078;51.596;5.678;2024-02-21T12:22:00;101172.97;;;11.11;75.88
80712;BME280;70078;51.596;5.678;2024-02-21T12:24:27;101144.53;;;11.02;76.68
80712;BME280;70078;51.596;5.678;2024-02-21T12:26:55;101179.88;;;11.38;75.22
80712;BME280;70078;51.596;5.678;2024-02-21T12:29:27;101167.38;;;11.47;74.67
80712;BME280;70078;51.596;5.678;2024-02-21T12:31:55;101118.56;;;11.21;74.14
80712;BME280;70078;51.596;5.678;2024-02-21T12:34:23;101153.53;;;11.52;74.32
80712;BME280;70078;51.596;5.678;2024-02-21T12:36:49;101112.56;;;11.35;74.12
80712;BME280;70078;51.596;5.678;2024-02-21T12:39:15;101126.63;;;11.61;74.18
80712;BME280;70078;51.596;5.678;2024-02-21T12:41:40;101122.28;;;11.68;74.15
80712;BME280;70078;51.596;5.678;2024-02-21T12:44:07;101100.88;;;11.60;73.67
80712;BME280;70078;51.596;5.678;2024-02-21T12:46:33;101109.56;;;11.71;73.98
80712;BME280;70078;51.596;5.678;2024-02-21T12:51:34;101075.50;;;11.56;72.81
80712;BME280;70078;51.596;5.678;2024-02-21T12:54:00;101083.84;;;11.70;73.32
80712;BME280;70078;51.596;5.678;2024-02-21T12:56:30;101070.97;;;11.73;73.60
80712;BME280;70078;51.596;5.678;2024-02-21T12:58:56;101029.69;;;11.59;72.11
80712;BME280;70078;51.596;5.678;2024-02-21T13:01:24;101046.41;;;11.61;71.52
80712;BME280;70078;51.596;5.678;2024-02-21T13:03:49;101043.06;;;11.59;71.82
80712;BME280;70078;51.596;5.678;2024-02-21T13:06:15;101008.34;;;11.35;72.33
80712;BME280;70078;51.596;5.678;2024-02-21T13:08:40;101013.84;;;11.42;72.14
80712;BME280;70078;51.596;5.678;2024-02-21T13:11:06;101026.34;;;11.33;72.53
80712;BME280;70078;51.596;5.678;2024-02-21T13:13:31;101019.03;;;11.35;73.14
80712;BME280;70078;51.596;5.678;2024-02-21T13:15:58;100991.78;;;11.31;73.00
80712;BME280;70078;51.596;5.678;2024-02-21T13:18:23;101009.66;;;11.23;73.16
80712;BME280;70078;51.596;5.678;2024-02-21T13:20:48;101008.34;;;11.35;73.38
80712;BME280;70078;51.596;5.678;2024-02-21T13:23:14;101000.63;;;11.24;72.39
80712;BME280;70078;51.596;5.678;2024-02-21T13:25:39;100996.97;;;11.41;72.06
80712;BME280;70078;51.596;5.678;2024-02-21T13:28:04;100993.63;;;11.39;72.04
80712;BME280;70078;51.596;5.678;2024-02-21T13:30:30;101000.63;;;11.32;72.99
80712;BME280;70078;51.596;5.678;2024-02-21T13:32:57;100979.59;;;11.21;72.93
80712;BME280;70078;51.596;5.678;2024-02-21T13:35:22;100997.78;;;11.33;72.77
80712;BME280;70078;51.596;5.678;2024-02-21T13:37:48;100959.53;;;11.17;71.85
80712;BME280;70078;51.596;5.678;2024-02-21T13:40:14;100971.41;;;11.22;71.57
80712;BME280;70078;51.596;5.678;2024-02-21T13:42:39;100958.88;;;11.06;71.83
80712;BME280;70078;51.596;5.678;2024-02-21T13:45:05;100977.59;;;11.15;71.74
80712;BME280;70078;51.596;5.678;2024-02-21T13:47:31;100978.06;;;11.10;72.62
80712;BME280;70078;51.596;5.678;2024-02-21T13:49:56;100951.03;;;11.05;72.44
80712;BME280;70078;51.596;5.678;2024-02-21T13:52:22;100940.84;;;11.00;72.81
80712;BME280;70078;51.596;5.678;2024-02-21T13:54:47;100948.69;;;11.02;72.61
80712;BME280;70078;51.596;5.678;2024-02-21T13:57:13;100933.66;;;11.01;72.96
80712;BME280;70078;51.596;5.678;2024-02-21T13:59:39;100928.50;;;10.99;72.99
80712;BME280;70078;51.596;5.678;2024-02-21T14:02:04;100922.81;;;10.94;73.24
80712;BME280;70078;51.596;5.678;2024-02-21T14:04:30;100911.66;;;10.91;73.11
80712;BME280;70078;51.596;5.678;2024-02-21T14:06:56;100914.47;;;10.97;73.13
80712;BME280;70078;51.596;5.678;2024-02-21T14:09:21;100882.09;;;10.76;73.46
80712;BME280;70078;51.596;5.678;2024-02-21T14:11:46;100893.44;;;10.86;73.16
80712;BME280;70078;51.596;5.678;2024-02-21T14:14:12;100870.25;;;10.70;73.77
80712;BME280;70078;51.596;5.678;2024-02-21T14:16:38;100852.91;;;10.74;73.23
80712;BME280;70078;51.596;5.678;2024-02-21T14:19:03;100875.94;;;10.75;74.36
80712;BME280;70078;51.596;5.678;2024-02-21T14:21:28;100876.22;;;10.80;74.03
80712;BME280;70078;51.596;5.678;2024-02-21T14:23:54;100856.06;;;10.62;74.36
80712;BME280;70078;51.596;5.678;2024-02-21T14:26:19;100866.41;;;10.81;73.23
80712;BME280;70078;51.596;5.678;2024-02-21T14:28:44;100850.72;;;10.78;73.60
80712;BME280;70078;51.596;5.678;2024-02-21T14:31:11;100818.69;;;10.70;72.90
80712;BME280;70078;51.596;5.678;2024-02-21T14:33:36;100841.88;;;10.86;72.69
80712;BME280;70078;51.596;5.678;2024-02-21T14:36:01;100831.19;;;10.69;72.64
80712;BME280;70078;51.596;5.678;2024-02-21T14:38:27;100834.88;;;10.76;73.73
80712;BME280;70078;51.596;5.678;2024-02-21T14:40:53;100787.97;;;10.49;73.65
80712;BME280;70078;51.596;5.678;2024-02-21T14:43:18;100788.81;;;10.66;73.94
80712;BME280;70078;51.596;5.678;2024-02-21T14:45:46;100796.50;;;10.69;73.83
80712;BME280;70078;51.596;5.678;2024-02-21T14:48:13;100781.97;;;10.72;74.07
80712;BME280;70078;51.596;5.678;2024-02-21T14:50:38;100776.31;;;10.67;74.44
80712;BME280;70078;51.596;5.678;2024-02-21T14:53:03;100751.31;;;10.51;74.58
80712;BME280;70078;51.596;5.678;2024-02-21T14:55:29;100778.81;;;10.68;75.26
80712;BME280;70078;51.596;5.678;2024-02-21T14:57:54;100757.63;;;10.67;74.39
80712;BME280;70078;51.596;5.678;2024-02-21T15:00:19;100749.78;;;10.57;75.65
80712;BME280;70078;51.596;5.678;2024-02-21T15:02:46;100728.25;;;10.42;75.94
80712;BME280;70078;51.596;5.678;2024-02-21T15:05:12;100732.44;;;10.45;76.24
80712;BME280;70078;51.596;5.678;2024-02-21T15:07:39;100729.59;;;10.46;77.14
80712;BME280;70078;51.596;5.678;2024-02-21T15:10:04;100729.97;;;10.43;78.20
80712;BME280;70078;51.596;5.678;2024-02-21T15:12:29;100720.97;;;10.28;78.23
80712;BME280;70078;51.596;5.678;2024-02-21T15:14:56;100725.28;;;10.29;78.47
80712;BME280;70078;51.596;5.678;2024-02-21T15:17:21;100709.59;;;10.26;78.20
80712;BME280;70078;51.596;5.678;2024-02-21T15:19:47;100697.59;;;9.97;78.89
80712;BME280;70078;51.596;5.678;2024-02-21T15:22:12;100705.25;;;10.09;79.25
80712;BME280;70078;51.596;5.678;2024-02-21T15:24:41;100682.72;;;9.79;80.09
80712;BME280;70078;51.596;5.678;2024-02-21T15:27:07;100698.91;;;9.93;80.31
80712;BME280;70078;51.596;5.678;2024-02-21T15:29:36;100688.91;;;9.79;81.49
80712;BME280;70078;51.596;5.678;2024-02-21T15:32:02;100695.41;;;9.85;81.79
80712;BME280;70078;51.596;5.678;2024-02-21T15:34:28;100679.72;;;9.82;80.17
80712;BME280;70078;51.596;5.678;2024-02-21T15:36:54;100675.56;;;9.79;81.31
80712;BME280;70078;51.596;5.678;2024-02-21T15:39:19;100676.41;;;9.80;81.64
80712;BME280;70078;51.596;5.678;2024-02-21T15:41:44;100670.22;;;9.71;82.03
80712;BME280;70078;51.596;5.678;2024-02-21T15:44:09;100651.22;;;9.58;82.96
80712;BME280;70078;51.596;5.678;2024-02-21T15:46:35;100648.22;;;9.53;83.94
80712;BME280;70078;51.596;5.678;2024-02-21T15:49:02;100648.88;;;9.55;84.12